This is the latest recevied weather packets stored in our database for station/object KB0BS-13. If no packets are shown the sender has not sent any weather packets the latest 10 day(s).
| Time | Temp. | Humidity | Pressure | Rain* | Wind** | Luminosity | Snow |
|---|---|---|---|---|---|---|---|
| 1777605458 | 1.11° C | 95% | 1016.7 hPa | 0 mm | - | 0 W/m² | - |
| 1777605156 | 1.11° C | 94% | 1016.6 hPa | 0 mm | - | 0 W/m² | - |
| 1777604851 | 1.11° C | 93% | 1016.6 hPa | 0 mm | - | 0 W/m² | - |
| 1777604548 | 1.11° C | 92% | 1016.6 hPa | 0 mm | - | 0 W/m² | - |
| 1777604243 | 1.67° C | 91% | 1016.8 hPa | 0 mm | - | 0 W/m² | - |
| 1777603939 | 1.67° C | 90% | 1016.6 hPa | 0 mm | - | 0 W/m² | - |
| 1777603636 | 1.67° C | 89% | 1016.7 hPa | 0 mm | - | 0 W/m² | - |
| 1777603333 | 1.67° C | 89% | 1016.6 hPa | 0 mm | - | 0 W/m² | - |
| 1777603028 | 1.67° C | 89% | 1016.7 hPa | 0 mm | - | 0 W/m² | - |
| 1777602724 | 1.67° C | 89% | 1016.6 hPa | 0 mm | - | 0 W/m² | - |
| 1777602418 | 1.67° C | 88% | 1016.7 hPa | 0 mm | - | 0 W/m² | - |
| 1777602115 | 1.11° C | 89% | 1016.7 hPa | 0 mm | - | 0 W/m² | - |
| 1777600900 | 0.56° C | 90% | 1016.3 hPa | 0 mm | - | 0 W/m² | - |
| 1777600600 | 0.56° C | 89% | 1016.6 hPa | 0 mm | - | 0 W/m² | - |
| 1777586935 | 5° C | 75% | 1015.5 hPa | 0 mm | - | 125 W/m² | - |
| 1777586631 | 5° C | 75% | 1015.4 hPa | 0 mm | - | 93 W/m² | - |
| 1777586025 | 5° C | 73% | 1015.2 hPa | 0 mm | - | 158 W/m² | - |
| 1777584816 | 5° C | 73% | 1015.3 hPa | 0 mm | - | 99 W/m² | - |
| 1777583910 | 5° C | 76% | 1015.2 hPa | 0 mm | - | 91 W/m² | - |
| 1777583305 | 5.56° C | 76% | 1015.3 hPa | 0 mm | - | 180 W/m² | - |
| 1777582698 | 5.56° C | 77% | 1015.3 hPa | 0 mm | - | 262 W/m² | - |
| 1777581496 | 5.56° C | 76% | 1015.2 hPa | 0 mm | - | 225 W/m² | - |
| 1777579974 | 5° C | 85% | 1015.3 hPa | 0 mm | - | 223 W/m² | - |
| 1777579368 | 5° C | 85% | 1015.3 hPa | 0 mm | - | 214 W/m² | - |
| 1777577545 | 3.89° C | 94% | 1015.6 hPa | 0 mm | - | 321 W/m² | - |
* Rain latest hour (hover to see other rain measurements)
** Current wind speed in m/s (hover to see current wind gust speed)